sensor_id;sensor_type;location;lat;lon;timestamp;pressure;altitude;pressure_sealevel;temperature;humidity
24486;BME280;13449;49.374;8.584;2023-01-01T00:01:13;100637.78;;;13.48;78.47
24486;BME280;13449;49.374;8.584;2023-01-01T00:03:40;100647.75;;;13.63;77.45
24486;BME280;13449;49.374;8.584;2023-01-01T00:06:11;100648.50;;;13.84;76.22
24486;BME280;13449;49.374;8.584;2023-01-01T00:08:38;100647.38;;;13.72;76.74
24486;BME280;13449;49.374;8.584;2023-01-01T00:11:07;100646.75;;;13.70;76.99
24486;BME280;13449;49.374;8.584;2023-01-01T00:13:35;100654.88;;;13.91;75.87
24486;BME280;13449;49.374;8.584;2023-01-01T00:16:06;100648.34;;;13.92;75.52
24486;BME280;13449;49.374;8.584;2023-01-01T00:18:38;100658.63;;;13.84;76.27
24486;BME280;13449;49.374;8.584;2023-01-01T00:21:12;100668.13;;;13.81;76.11
24486;BME280;13449;49.374;8.584;2023-01-01T00:23:42;100664.50;;;13.74;76.54
24486;BME280;13449;49.374;8.584;2023-01-01T00:26:16;100679.69;;;13.77;76.24
24486;BME280;13449;49.374;8.584;2023-01-01T00:28:44;100661.09;;;13.72;76.56
24486;BME280;13449;49.374;8.584;2023-01-01T00:31:13;100667.75;;;13.57;77.36
24486;BME280;13449;49.374;8.584;2023-01-01T00:33:43;100674.03;;;13.50;77.34
24486;BME280;13449;49.374;8.584;2023-01-01T00:36:13;100670.00;;;13.46;77.72
24486;BME280;13449;49.374;8.584;2023-01-01T00:38:41;100674.28;;;13.55;77.12
24486;BME280;13449;49.374;8.584;2023-01-01T00:41:09;100683.53;;;13.54;77.46
24486;BME280;13449;49.374;8.584;2023-01-01T00:43:35;100674.00;;;13.44;77.56
24486;BME280;13449;49.374;8.584;2023-01-01T00:46:03;100674.91;;;13.23;78.88
24486;BME280;13449;49.374;8.584;2023-01-01T00:48:30;100676.75;;;13.01;79.59
24486;BME280;13449;49.374;8.584;2023-01-01T00:51:02;100666.47;;;12.82;80.54
24486;BME280;13449;49.374;8.584;2023-01-01T00:53:29;100666.31;;;12.63;81.92
24486;BME280;13449;49.374;8.584;2023-01-01T00:55:56;100667.47;;;12.53;83.16
24486;BME280;13449;49.374;8.584;2023-01-01T00:58:23;100658.06;;;12.41;83.64
24486;BME280;13449;49.374;8.584;2023-01-01T01:00:53;100659.63;;;12.29;84.24
24486;BME280;13449;49.374;8.584;2023-01-01T01:03:20;100660.78;;;12.20;84.89
24486;BME280;13449;49.374;8.584;2023-01-01T01:08:29;100656.69;;;11.95;85.59
24486;BME280;13449;49.374;8.584;2023-01-01T01:11:10;100662.34;;;11.79;86.64
24486;BME280;13449;49.374;8.584;2023-01-01T01:13:37;100652.38;;;11.71;87.24
24486;BME280;13449;49.374;8.584;2023-01-01T01:16:09;100654.97;;;11.64;87.75
24486;BME280;13449;49.374;8.584;2023-01-01T01:18:36;100659.75;;;11.62;87.80
24486;BME280;13449;49.374;8.584;2023-01-01T01:21:05;100667.63;;;11.51;88.48
24486;BME280;13449;49.374;8.584;2023-01-01T01:23:39;100655.16;;;11.48;89.20
24486;BME280;13449;49.374;8.584;2023-01-01T01:26:18;100671.06;;;11.45;89.03
24486;BME280;13449;49.374;8.584;2023-01-01T01:28:45;100664.13;;;11.42;89.70
24486;BME280;13449;49.374;8.584;2023-01-01T01:31:16;100661.47;;;11.34;90.34
24486;BME280;13449;49.374;8.584;2023-01-01T01:33:44;100664.94;;;11.28;89.90
24486;BME280;13449;49.374;8.584;2023-01-01T01:36:13;100668.13;;;11.17;90.37
24486;BME280;13449;49.374;8.584;2023-01-01T01:38:40;100676.88;;;11.12;91.60
24486;BME280;13449;49.374;8.584;2023-01-01T01:41:07;100674.25;;;11.19;90.88
24486;BME280;13449;49.374;8.584;2023-01-01T01:46:49;100685.91;;;11.13;91.56
24486;BME280;13449;49.374;8.584;2023-01-01T01:49:32;100682.97;;;11.14;91.34
24486;BME280;13449;49.374;8.584;2023-01-01T01:51:59;100685.44;;;11.09;91.64
24486;BME280;13449;49.374;8.584;2023-01-01T01:54:28;100677.25;;;11.09;91.70
24486;BME280;13449;49.374;8.584;2023-01-01T01:57:03;100685.78;;;11.06;91.76
24486;BME280;13449;49.374;8.584;2023-01-01T01:59:35;100686.09;;;11.11;91.26
24486;BME280;13449;49.374;8.584;2023-01-01T02:02:08;100684.38;;;11.10;91.23
24486;BME280;13449;49.374;8.584;2023-01-01T02:04:38;100681.38;;;11.05;91.47
24486;BME280;13449;49.374;8.584;2023-01-01T02:07:05;100674.00;;;11.06;91.49
24486;BME280;13449;49.374;8.584;2023-01-01T02:09:32;100671.47;;;11.04;91.79
24486;BME280;13449;49.374;8.584;2023-01-01T02:11:58;100666.50;;;11.08;92.20
24486;BME280;13449;49.374;8.584;2023-01-01T02:14:25;100674.00;;;11.06;91.42
24486;BME280;13449;49.374;8.584;2023-01-01T02:17:04;100674.97;;;10.98;91.85
24486;BME280;13449;49.374;8.584;2023-01-01T02:25:39;100666.78;;;10.98;91.51
24486;BME280;13449;49.374;8.584;2023-01-01T02:30:46;100672.88;;;11.00;91.37
24486;BME280;13449;49.374;8.584;2023-01-01T02:33:17;100668.53;;;11.06;91.32
24486;BME280;13449;49.374;8.584;2023-01-01T02:36:05;100676.47;;;11.01;91.34
24486;BME280;13449;49.374;8.584;2023-01-01T02:38:39;100673.72;;;11.01;92.36
24486;BME280;13449;49.374;8.584;2023-01-01T02:41:23;100675.44;;;11.02;92.16
24486;BME280;13449;49.374;8.584;2023-01-01T02:43:53;100681.91;;;11.01;92.32
24486;BME280;13449;49.374;8.584;2023-01-01T02:46:20;100676.84;;;10.98;91.64
24486;BME280;13449;49.374;8.584;2023-01-01T02:48:50;100677.00;;;10.96;91.84
24486;BME280;13449;49.374;8.584;2023-01-01T03:02:03;100678.59;;;10.91;92.64
24486;BME280;13449;49.374;8.584;2023-01-01T03:13:18;100702.72;;;10.56;94.03
24486;BME280;13449;49.374;8.584;2023-01-01T03:16:03;100705.13;;;10.51;94.74
24486;BME280;13449;49.374;8.584;2023-01-01T03:21:41;100708.81;;;10.36;96.08
24486;BME280;13449;49.374;8.584;2023-01-01T03:24:14;100705.06;;;10.37;96.29
24486;BME280;13449;49.374;8.584;2023-01-01T03:26:49;100698.78;;;10.28;96.15
24486;BME280;13449;49.374;8.584;2023-01-01T03:29:17;100697.72;;;10.37;97.29
24486;BME280;13449;49.374;8.584;2023-01-01T03:31:46;100698.13;;;10.26;95.85
24486;BME280;13449;49.374;8.584;2023-01-01T03:34:21;100699.84;;;10.27;96.66
24486;BME280;13449;49.374;8.584;2023-01-01T03:36:52;100701.50;;;10.28;96.96
24486;BME280;13449;49.374;8.584;2023-01-01T03:39:24;100712.16;;;10.15;96.56
24486;BME280;13449;49.374;8.584;2023-01-01T03:44:49;100709.44;;;10.15;96.82
24486;BME280;13449;49.374;8.584;2023-01-01T03:47:21;100709.44;;;10.07;97.67
24486;BME280;13449;49.374;8.584;2023-01-01T03:49:47;100706.84;;;10.13;98.78
24486;BME280;13449;49.374;8.584;2023-01-01T04:00:16;100711.28;;;10.23;97.35
24486;BME280;13449;49.374;8.584;2023-01-01T04:02:51;100717.63;;;10.15;97.09
24486;BME280;13449;49.374;8.584;2023-01-01T04:05:20;100715.50;;;10.25;96.81
24486;BME280;13449;49.374;8.584;2023-01-01T04:07:47;100713.19;;;10.06;97.25
24486;BME280;13449;49.374;8.584;2023-01-01T04:10:14;100707.94;;;10.04;97.32
24486;BME280;13449;49.374;8.584;2023-01-01T04:12:53;100720.34;;;10.15;97.40
24486;BME280;13449;49.374;8.584;2023-01-01T04:15:22;100712.81;;;10.17;97.50
24486;BME280;13449;49.374;8.584;2023-01-01T04:17:53;100713.50;;;10.11;98.54
24486;BME280;13449;49.374;8.584;2023-01-01T04:20:20;100709.28;;;10.08;97.78
24486;BME280;13449;49.374;8.584;2023-01-01T04:22:49;100707.03;;;10.12;98.13
24486;BME280;13449;49.374;8.584;2023-01-01T04:25:18;100708.91;;;10.11;97.80
24486;BME280;13449;49.374;8.584;2023-01-01T04:27:45;100714.03;;;10.14;97.98
24486;BME280;13449;49.374;8.584;2023-01-01T04:30:12;100717.25;;;10.10;98.31
24486;BME280;13449;49.374;8.584;2023-01-01T04:32:42;100719.97;;;10.10;98.30
24486;BME280;13449;49.374;8.584;2023-01-01T04:35:10;100711.81;;;10.18;97.36
24486;BME280;13449;49.374;8.584;2023-01-01T04:37:41;100715.88;;;10.22;96.94
24486;BME280;13449;49.374;8.584;2023-01-01T04:40:09;100713.16;;;10.22;97.60
24486;BME280;13449;49.374;8.584;2023-01-01T04:42:36;100724.69;;;10.24;96.67
24486;BME280;13449;49.374;8.584;2023-01-01T04:45:02;100713.50;;;10.19;96.97
24486;BME280;13449;49.374;8.584;2023-01-01T04:47:32;100717.41;;;10.16;97.01
24486;BME280;13449;49.374;8.584;2023-01-01T04:50:04;100713.66;;;10.09;97.20
24486;BME280;13449;49.374;8.584;2023-01-01T04:52:30;100716.22;;;10.19;97.40
24486;BME280;13449;49.374;8.584;2023-01-01T04:54:59;100721.19;;;10.07;97.16
24486;BME280;13449;49.374;8.584;2023-01-01T04:57:30;100722.34;;;10.13;97.02
24486;BME280;13449;49.374;8.584;2023-01-01T04:59:57;100729.84;;;10.11;96.97
24486;BME280;13449;49.374;8.584;2023-01-01T05:02:23;100735.66;;;10.08;97.24
24486;BME280;13449;49.374;8.584;2023-01-01T05:04:52;100729.84;;;10.11;97.33
24486;BME280;13449;49.374;8.584;2023-01-01T05:07:19;100731.41;;;10.05;97.42
24486;BME280;13449;49.374;8.584;2023-01-01T05:09:46;100740.78;;;10.03;97.54
24486;BME280;13449;49.374;8.584;2023-01-01T05:12:12;100734.84;;;9.99;98.02
24486;BME280;13449;49.374;8.584;2023-01-01T05:14:45;100738.06;;;10.03;97.62
24486;BME280;13449;49.374;8.584;2023-01-01T05:17:14;100747.25;;;10.02;97.76
24486;BME280;13449;49.374;8.584;2023-01-01T05:19:40;100748.94;;;10.03;97.60
24486;BME280;13449;49.374;8.584;2023-01-01T05:22:07;100758.16;;;10.02;97.38
24486;BME280;13449;49.374;8.584;2023-01-01T05:24:36;100750.31;;;9.99;97.77
24486;BME280;13449;49.374;8.584;2023-01-01T05:27:02;100753.56;;;10.02;98.17
24486;BME280;13449;49.374;8.584;2023-01-01T05:29:29;100754.75;;;10.00;98.00
24486;BME280;13449;49.374;8.584;2023-01-01T05:31:55;100763.47;;;9.95;97.88
24486;BME280;13449;49.374;8.584;2023-01-01T05:34:22;100766.66;;;10.07;97.78
24486;BME280;13449;49.374;8.584;2023-01-01T05:36:50;100771.09;;;10.00;97.71
24486;BME280;13449;49.374;8.584;2023-01-01T05:39:19;100765.66;;;10.00;97.63
24486;BME280;13449;49.374;8.584;2023-01-01T05:41:46;100762.34;;;10.12;96.63
24486;BME280;13449;49.374;8.584;2023-01-01T05:44:12;100751.66;;;10.11;96.62
24486;BME280;13449;49.374;8.584;2023-01-01T05:46:42;100759.69;;;10.04;97.25
24486;BME280;13449;49.374;8.584;2023-01-01T05:49:10;100759.84;;;10.19;95.96
24486;BME280;13449;49.374;8.584;2023-01-01T05:51:37;100775.63;;;10.24;95.83
24486;BME280;13449;49.374;8.584;2023-01-01T05:54:02;100772.22;;;10.30;95.34
24486;BME280;13449;49.374;8.584;2023-01-01T05:56:29;100770.88;;;10.26;95.65
24486;BME280;13449;49.374;8.584;2023-01-01T05:58:55;100781.59;;;10.27;95.21
24486;BME280;13449;49.374;8.584;2023-01-01T06:01:29;100784.50;;;10.26;95.28
24486;BME280;13449;49.374;8.584;2023-01-01T06:03:57;100772.88;;;10.62;92.55
24486;BME280;13449;49.374;8.584;2023-01-01T06:06:27;100764.09;;;10.52;93.03
24486;BME280;13449;49.374;8.584;2023-01-01T06:09:02;100778.16;;;10.33;93.91
24486;BME280;13449;49.374;8.584;2023-01-01T06:11:32;100792.66;;;10.26;94.64
24486;BME280;13449;49.374;8.584;2023-01-01T06:13:59;100801.88;;;10.25;94.64
24486;BME280;13449;49.374;8.584;2023-01-01T06:16:27;100782.22;;;10.37;93.71
24486;BME280;13449;49.374;8.584;2023-01-01T06:18:54;100780.88;;;10.33;93.89
24486;BME280;13449;49.374;8.584;2023-01-01T06:21:26;100785.63;;;10.39;93.58
24486;BME280;13449;49.374;8.584;2023-01-01T06:23:54;100780.91;;;10.25;94.12
24486;BME280;13449;49.374;8.584;2023-01-01T06:26:24;100787.38;;;10.24;94.64
24486;BME280;13449;49.374;8.584;2023-01-01T06:28:54;100782.44;;;10.28;94.32
24486;BME280;13449;49.374;8.584;2023-01-01T06:31:21;100786.06;;;10.12;95.01
24486;BME280;13449;49.374;8.584;2023-01-01T06:33:52;100793.19;;;10.13;94.92
24486;BME280;13449;49.374;8.584;2023-01-01T06:36:21;100797.63;;;10.22;94.07
24486;BME280;13449;49.374;8.584;2023-01-01T06:38:51;100799.50;;;10.13;94.74
24486;BME280;13449;49.374;8.584;2023-01-01T06:41:22;100803.94;;;10.14;94.59
24486;BME280;13449;49.374;8.584;2023-01-01T06:43:49;100806.16;;;10.19;94.08
24486;BME280;13449;49.374;8.584;2023-01-01T06:46:27;100806.50;;;10.08;94.64
24486;BME280;13449;49.374;8.584;2023-01-01T06:48:57;100823.00;;;10.06;95.17
24486;BME280;13449;49.374;8.584;2023-01-01T06:51:29;100814.34;;;9.95;95.45
24486;BME280;13449;49.374;8.584;2023-01-01T06:54:00;100812.16;;;9.90;95.64
24486;BME280;13449;49.374;8.584;2023-01-01T06:56:27;100818.13;;;9.86;96.67
24486;BME280;13449;49.374;8.584;2023-01-01T06:58:53;100812.00;;;9.76;96.76
24486;BME280;13449;49.374;8.584;2023-01-01T07:01:23;100825.81;;;9.74;96.86
24486;BME280;13449;49.374;8.584;2023-01-01T07:03:52;100837.88;;;9.71;97.19
24486;BME280;13449;49.374;8.584;2023-01-01T07:06:19;100847.75;;;9.64;97.72
24486;BME280;13449;49.374;8.584;2023-01-01T07:08:46;100847.59;;;9.58;97.80
24486;BME280;13449;49.374;8.584;2023-01-01T07:11:12;100840.13;;;9.52;98.52
24486;BME280;13449;49.374;8.584;2023-01-01T07:13:38;100848.78;;;9.47;98.67
24486;BME280;13449;49.374;8.584;2023-01-01T07:16:06;100851.34;;;9.41;98.67
24486;BME280;13449;49.374;8.584;2023-01-01T07:18:38;100868.84;;;9.38;99.29
24486;BME280;13449;49.374;8.584;2023-01-01T07:21:06;100868.84;;;9.30;99.67
24486;BME280;13449;49.374;8.584;2023-01-01T07:23:57;100874.44;;;9.20;100.00
24486;BME280;13449;49.374;8.584;2023-01-01T07:26:25;100873.09;;;9.16;100.00
24486;BME280;13449;49.374;8.584;2023-01-01T07:28:52;100867.63;;;9.08;100.00
24486;BME280;13449;49.374;8.584;2023-01-01T07:31:19;100874.59;;;9.03;100.00
24486;BME280;13449;49.374;8.584;2023-01-01T07:33:48;100877.47;;;9.01;100.00
24486;BME280;13449;49.374;8.584;2023-01-01T07:36:15;100882.72;;;8.95;100.00
24486;BME280;13449;49.374;8.584;2023-01-01T07:38:41;100885.78;;;8.92;100.00
24486;BME280;13449;49.374;8.584;2023-01-01T07:41:08;100885.78;;;8.92;100.00
24486;BME280;13449;49.374;8.584;2023-01-01T07:43:34;100892.91;;;8.85;100.00
24486;BME280;13449;49.374;8.584;2023-01-01T07:46:01;100898.66;;;8.82;100.00
24486;BME280;13449;49.374;8.584;2023-01-01T07:48:30;100898.31;;;8.77;100.00
24486;BME280;13449;49.374;8.584;2023-01-01T07:51:05;100903.56;;;8.78;100.00
24486;BME280;13449;49.374;8.584;2023-01-01T07:53:31;100914.28;;;8.80;100.00
24486;BME280;13449;49.374;8.584;2023-01-01T07:55:58;100921.44;;;8.81;100.00
24486;BME280;13449;49.374;8.584;2023-01-01T07:58:24;100926.34;;;8.77;100.00
24486;BME280;13449;49.374;8.584;2023-01-01T08:00:53;100936.72;;;8.82;100.00
24486;BME280;13449;49.374;8.584;2023-01-01T08:03:19;100934.84;;;8.82;100.00
24486;BME280;13449;49.374;8.584;2023-01-01T08:05:46;100931.16;;;8.91;100.00
24486;BME280;13449;49.374;8.584;2023-01-01T08:08:13;100935.41;;;8.94;100.00
24486;BME280;13449;49.374;8.584;2023-01-01T08:10:40;100935.94;;;8.97;100.00
24486;BME280;13449;49.374;8.584;2023-01-01T08:13:07;100931.34;;;8.98;100.00
24486;BME280;13449;49.374;8.584;2023-01-01T08:15:36;100927.78;;;8.97;100.00
24486;BME280;13449;49.374;8.584;2023-01-01T08:18:04;100930.00;;;9.02;100.00
24486;BME280;13449;49.374;8.584;2023-01-01T08:20:32;100922.72;;;9.10;100.00
24486;BME280;13449;49.374;8.584;2023-01-01T08:22:58;100923.75;;;9.17;100.00
24486;BME280;13449;49.374;8.584;2023-01-01T08:25:32;100926.31;;;9.27;100.00
24486;BME280;13449;49.374;8.584;2023-01-01T08:28:03;100927.88;;;9.38;100.00
24486;BME280;13449;49.374;8.584;2023-01-01T08:30:36;100919.38;;;9.49;100.00
24486;BME280;13449;49.374;8.584;2023-01-01T08:33:02;100916.34;;;9.76;100.00
24486;BME280;13449;49.374;8.584;2023-01-01T08:35:29;100921.78;;;9.84;99.35
24486;BME280;13449;49.374;8.584;2023-01-01T08:37:56;100912.56;;;10.09;97.46
24486;BME280;13449;49.374;8.584;2023-01-01T08:40:22;100916.41;;;10.63;93.62
24486;BME280;13449;49.374;8.584;2023-01-01T08:42:48;100911.53;;;10.90;90.99
24486;BME280;13449;49.374;8.584;2023-01-01T08:45:15;100914.06;;;10.91;92.45
24486;BME280;13449;49.374;8.584;2023-01-01T08:47:42;100906.91;;;10.90;92.37
24486;BME280;13449;49.374;8.584;2023-01-01T08:50:08;100913.81;;;11.09;90.97
24486;BME280;13449;49.374;8.584;2023-01-01T08:52:37;100917.53;;;11.16;90.94
24486;BME280;13449;49.374;8.584;2023-01-01T08:55:04;100915.69;;;11.39;88.46
24486;BME280;13449;49.374;8.584;2023-01-01T08:57:30;100919.34;;;11.54;87.24
24486;BME280;13449;49.374;8.584;2023-01-01T08:59:57;100924.56;;;11.87;84.08
24486;BME280;13449;49.374;8.584;2023-01-01T09:02:23;100929.00;;;11.88;84.67
24486;BME280;13449;49.374;8.584;2023-01-01T09:04:50;100934.63;;;12.09;82.57
24486;BME280;13449;49.374;8.584;2023-01-01T09:07:19;100937.06;;;12.19;82.57
24486;BME280;13449;49.374;8.584;2023-01-01T09:09:46;100939.50;;;12.51;80.51
24486;BME280;13449;49.374;8.584;2023-01-01T09:12:15;100943.56;;;12.70;78.59
24486;BME280;13449;49.374;8.584;2023-01-01T09:14:41;100952.88;;;12.75;79.07
24486;BME280;13449;49.374;8.584;2023-01-01T09:17:08;100955.47;;;12.77;78.68
24486;BME280;13449;49.374;8.584;2023-01-01T09:19:34;100949.59;;;12.94;77.49
24486;BME280;13449;49.374;8.584;2023-01-01T09:22:01;100965.34;;;13.07;76.38
24486;BME280;13449;49.374;8.584;2023-01-01T09:24:27;100984.91;;;13.19;75.21
24486;BME280;13449;49.374;8.584;2023-01-01T09:26:54;100977.06;;;13.30;75.54
24486;BME280;13449;49.374;8.584;2023-01-01T09:29:20;100982.16;;;13.33;75.21
24486;BME280;13449;49.374;8.584;2023-01-01T09:31:47;100982.31;;;13.46;74.99
24486;BME280;13449;49.374;8.584;2023-01-01T09:34:14;100992.00;;;13.64;74.26
24486;BME280;13449;49.374;8.584;2023-01-01T09:36:44;100994.81;;;13.70;74.04
24486;BME280;13449;49.374;8.584;2023-01-01T09:39:14;100996.00;;;13.82;73.54
24486;BME280;13449;49.374;8.584;2023-01-01T09:47:31;101025.59;;;14.08;70.34
24486;BME280;13449;49.374;8.584;2023-01-01T09:50:18;101010.91;;;14.16;71.93
24486;BME280;13449;49.374;8.584;2023-01-01T09:52:53;101026.38;;;14.23;69.89
24486;BME280;13449;49.374;8.584;2023-01-01T09:55:29;101010.19;;;14.28;71.22
24486;BME280;13449;49.374;8.584;2023-01-01T09:58:00;101011.84;;;14.29;70.77
24486;BME280;13449;49.374;8.584;2023-01-01T10:00:29;101021.16;;;14.28;71.10
24486;BME280;13449;49.374;8.584;2023-01-01T10:03:25;101023.78;;;14.36;69.38
24486;BME280;13449;49.374;8.584;2023-01-01T10:11:39;101007.06;;;14.59;68.79
24486;BME280;13449;49.374;8.584;2023-01-01T10:14:17;101032.75;;;14.73;66.97
24486;BME280;13449;49.374;8.584;2023-01-01T10:16:48;101010.97;;;14.71;67.83
24486;BME280;13449;49.374;8.584;2023-01-01T10:19:34;101012.91;;;14.77;68.02
24486;BME280;13449;49.374;8.584;2023-01-01T10:22:08;101012.75;;;14.85;66.90
24486;BME280;13449;49.374;8.584;2023-01-01T10:24:44;101006.41;;;14.85;67.53
24486;BME280;13449;49.374;8.584;2023-01-01T10:29:50;100979.31;;;14.75;68.92
24486;BME280;13449;49.374;8.584;2023-01-01T10:32:35;101006.94;;;14.95;66.10
24486;BME280;13449;49.374;8.584;2023-01-01T10:35:12;101005.22;;;14.94;65.65
24486;BME280;13449;49.374;8.584;2023-01-01T10:37:41;100997.00;;;15.00;65.83
24486;BME280;13449;49.374;8.584;2023-01-01T10:40:19;101001.47;;;15.02;65.04
24486;BME280;13449;49.374;8.584;2023-01-01T10:42:54;100976.06;;;14.93;67.37
24486;BME280;13449;49.374;8.584;2023-01-01T10:45:34;100965.47;;;14.90;66.86
24486;BME280;13449;49.374;8.584;2023-01-01T10:48:21;100947.94;;;14.84;68.67
24486;BME280;13449;49.374;8.584;2023-01-01T10:51:20;100959.50;;;14.80;67.50
24486;BME280;13449;49.374;8.584;2023-01-01T10:53:50;100974.41;;;14.98;65.47
24486;BME280;13449;49.374;8.584;2023-01-01T10:56:19;100960.44;;;15.00;66.25
24486;BME280;13449;49.374;8.584;2023-01-01T11:06:41;100996.31;;;15.26;63.37
24486;BME280;13449;49.374;8.584;2023-01-01T11:09:21;100983.06;;;15.36;64.47
24486;BME280;13449;49.374;8.584;2023-01-01T11:11:59;100983.44;;;15.33;64.30
24486;BME280;13449;49.374;8.584;2023-01-01T11:15:00;100978.63;;;15.42;65.29
24486;BME280;13449;49.374;8.584;2023-01-01T11:19:57;100984.56;;;15.45;63.80
24486;BME280;13449;49.374;8.584;2023-01-01T11:27:45;100986.97;;;15.55;63.05
24486;BME280;13449;49.374;8.584;2023-01-01T11:30:20;100970.38;;;15.48;63.82
24486;BME280;13449;49.374;8.584;2023-01-01T11:32:49;100970.19;;;15.43;64.09
24486;BME280;13449;49.374;8.584;2023-01-01T11:35:23;100954.72;;;15.36;63.94
24486;BME280;13449;49.374;8.584;2023-01-01T11:37:52;100933.78;;;15.41;65.50
24486;BME280;13449;49.374;8.584;2023-01-01T11:40:36;100936.94;;;15.32;65.10
24486;BME280;13449;49.374;8.584;2023-01-01T11:43:07;100919.81;;;15.30;65.40
24486;BME280;13449;49.374;8.584;2023-01-01T11:45:38;100923.81;;;15.27;65.69
24486;BME280;13449;49.374;8.584;2023-01-01T11:48:22;100903.53;;;15.22;66.68
24486;BME280;13449;49.374;8.584;2023-01-01T11:50:59;100922.94;;;15.20;65.72
24486;BME280;13449;49.374;8.584;2023-01-01T11:53:30;100912.78;;;15.14;66.53
24486;BME280;13449;49.374;8.584;2023-01-01T12:04:08;100891.19;;;15.11;67.25
24486;BME280;13449;49.374;8.584;2023-01-01T12:06:51;100888.28;;;15.19;67.80
24486;BME280;13449;49.374;8.584;2023-01-01T12:09:46;100898.84;;;15.22;66.93
24486;BME280;13449;49.374;8.584;2023-01-01T12:12:27;100885.56;;;15.26;67.24
24486;BME280;13449;49.374;8.584;2023-01-01T12:15:00;100898.03;;;15.28;66.45
24486;BME280;13449;49.374;8.584;2023-01-01T12:20:12;100886.88;;;15.36;66.36
24486;BME280;13449;49.374;8.584;2023-01-01T12:22:49;100887.91;;;15.35;66.06
24486;BME280;13449;49.374;8.584;2023-01-01T12:25:22;100866.34;;;15.32;67.62
24486;BME280;13449;49.374;8.584;2023-01-01T12:30:29;100874.38;;;15.27;67.29
24486;BME280;13449;49.374;8.584;2023-01-01T12:33:21;100861.66;;;15.26;67.41
24486;BME280;13449;49.374;8.584;2023-01-01T12:41:35;100866.31;;;15.19;68.03
24486;BME280;13449;49.374;8.584;2023-01-01T12:44:34;100876.06;;;15.22;68.44
24486;BME280;13449;49.374;8.584;2023-01-01T12:55:17;100877.03;;;15.08;67.55
24486;BME280;13449;49.374;8.584;2023-01-01T12:57:56;100868.59;;;15.09;68.02
24486;BME280;13449;49.374;8.584;2023-01-01T13:00:25;100859.50;;;15.09;67.94
24486;BME280;13449;49.374;8.584;2023-01-01T13:03:05;100873.25;;;15.15;66.91
24486;BME280;13449;49.374;8.584;2023-01-01T13:05:37;100856.16;;;15.13;68.13
24486;BME280;13449;49.374;8.584;2023-01-01T13:08:05;100848.34;;;15.10;69.52
24486;BME280;13449;49.374;8.584;2023-01-01T13:10:41;100861.66;;;15.13;68.36
24486;BME280;13449;49.374;8.584;2023-01-01T13:13:10;100845.78;;;15.15;68.76
24486;BME280;13449;49.374;8.584;2023-01-01T13:20:59;100858.47;;;15.16;67.98
24486;BME280;13449;49.374;8.584;2023-01-01T13:40:28;100839.16;;;14.90;68.63
24486;BME280;13449;49.374;8.584;2023-01-01T13:45:42;100816.09;;;14.78;70.16
24486;BME280;13449;49.374;8.584;2023-01-01T14:03:55;100835.84;;;14.54;71.52
24486;BME280;13449;49.374;8.584;2023-01-01T14:06:41;100818.09;;;14.49;72.57
24486;BME280;13449;49.374;8.584;2023-01-01T14:09:15;100822.53;;;14.50;72.45
24486;BME280;13449;49.374;8.584;2023-01-01T14:11:42;100822.91;;;14.47;72.12
24486;BME280;13449;49.374;8.584;2023-01-01T14:16:51;100827.13;;;14.43;72.10
24486;BME280;13449;49.374;8.584;2023-01-01T14:19:20;100829.22;;;14.41;71.99
24486;BME280;13449;49.374;8.584;2023-01-01T14:21:47;100821.81;;;14.35;73.93
24486;BME280;13449;49.374;8.584;2023-01-01T14:24:17;100822.38;;;14.31;74.47
24486;BME280;13449;49.374;8.584;2023-01-01T14:26:45;100819.81;;;14.29;74.60
24486;BME280;13449;49.374;8.584;2023-01-01T14:29:18;100810.13;;;14.27;75.79
24486;BME280;13449;49.374;8.584;2023-01-01T14:31:47;100825.28;;;14.23;75.19
24486;BME280;13449;49.374;8.584;2023-01-01T14:34:24;100826.09;;;14.17;75.05
24486;BME280;13449;49.374;8.584;2023-01-01T14:37:21;100833.06;;;14.19;73.86
24486;BME280;13449;49.374;8.584;2023-01-01T14:40:25;100820.16;;;14.13;74.55
24486;BME280;13449;49.374;8.584;2023-01-01T14:42:57;100819.09;;;14.14;73.91
24486;BME280;13449;49.374;8.584;2023-01-01T14:45:25;100817.81;;;14.10;73.90
24486;BME280;13449;49.374;8.584;2023-01-01T14:47:54;100820.72;;;14.02;74.58
24486;BME280;13449;49.374;8.584;2023-01-01T14:50:29;100821.75;;;14.01;74.50
24486;BME280;13449;49.374;8.584;2023-01-01T14:53:07;100814.53;;;13.93;74.90
24486;BME280;13449;49.374;8.584;2023-01-01T14:55:39;100816.56;;;13.85;76.51
24486;BME280;13449;49.374;8.584;2023-01-01T14:58:16;100814.38;;;13.74;77.92
24486;BME280;13449;49.374;8.584;2023-01-01T15:00:44;100813.47;;;13.67;77.02
24486;BME280;13449;49.374;8.584;2023-01-01T15:03:11;100810.47;;;13.62;76.80
24486;BME280;13449;49.374;8.584;2023-01-01T15:05:39;100809.56;;;13.54;78.80
24486;BME280;13449;49.374;8.584;2023-01-01T15:08:16;100798.38;;;13.49;78.34
24486;BME280;13449;49.374;8.584;2023-01-01T15:10:43;100805.63;;;13.57;76.68
24486;BME280;13449;49.374;8.584;2023-01-01T15:13:18;100811.84;;;13.51;77.84
24486;BME280;13449;49.374;8.584;2023-01-01T15:15:47;100804.00;;;13.41;77.58
24486;BME280;13449;49.374;8.584;2023-01-01T15:21:16;100798.25;;;13.36;78.69
24486;BME280;13449;49.374;8.584;2023-01-01T15:23:54;100794.88;;;13.34;78.68
24486;BME280;13449;49.374;8.584;2023-01-01T15:26:51;100794.59;;;13.29;79.86
24486;BME280;13449;49.374;8.584;2023-01-01T15:29:26;100796.22;;;13.24;78.34
24486;BME280;13449;49.374;8.584;2023-01-01T15:31:59;100795.31;;;13.17;78.20
24486;BME280;13449;49.374;8.584;2023-01-01T15:34:31;100794.84;;;13.13;78.55
24486;BME280;13449;49.374;8.584;2023-01-01T15:42:35;100785.16;;;12.96;79.51
24486;BME280;13449;49.374;8.584;2023-01-01T15:47:50;100774.34;;;12.88;79.03
24486;BME280;13449;49.374;8.584;2023-01-01T15:52:52;100763.72;;;12.78;79.21